Time;durP1;ratioP1;P1;durP2;ratioP2;P2;SDS_P1;SDS_P2;PMS_P1;PMS_P2;Temp;Humidity;BMP_temperature;BMP_pressure;BME280_temperature;BME280_humidity;BME280_pressure;Samples;Min_cycle;Max_cycle;Signal;HPM_P1;HPM_P2
2022/01/21 00:01:21;;;;;;;;;;;5.70;99.90;;;;;;5134803;27;19911;-80
2022/01/21 00:03:47;;;;;;;;;;;5.70;99.90;;;;;;5135401;27;19996;-80
2022/01/21 00:06:13;;;;;;;;;;;5.60;99.90;;;;;;5134971;27;20342;-80
2022/01/21 00:08:39;;;;;;;;;;;5.70;99.90;;;;;;5134506;27;20342;-80
2022/01/21 00:11:05;;;;;;;;;;;5.70;99.90;;;;;;5134416;27;19911;-81
2022/01/21 00:13:34;;;;;;;;;;;5.60;99.90;;;;;;5135376;27;20016;-80
2022/01/21 00:16:10;;;;;;;;;;;5.60;99.90;;;;;;5134233;27;19915;-81
2022/01/21 00:18:38;;;;;;;;;;;5.60;99.90;;;;;;5135021;27;19918;-80
2022/01/21 00:32:02;;;;;;;;;;;5.60;99.90;;;;;;5134169;27;19999;-80
2022/01/21 00:34:28;;;;;;;;;;;5.70;99.90;;;;;;5134519;27;19915;-79
2022/01/21 00:36:54;;;;;;;;;;;5.60;99.90;;;;;;5133593;27;19911;-76
2022/01/21 00:39:23;;;;;;;;;;;5.70;99.90;;;;;;5134632;27;19908;-79
2022/01/21 00:44:33;;;;;;;;;;;5.70;99.90;;;;;;5134807;27;19956;-80
2022/01/21 00:46:58;;;;;;;;;;;5.70;99.90;;;;;;5134124;27;20352;-79
2022/01/21 00:49:24;;;;;;;;;;;5.70;99.90;;;;;;5133995;27;19927;-80
2022/01/21 00:51:50;;;;;;;;;;;5.70;99.90;;;;;;5134100;27;19915;-79
2022/01/21 00:54:16;;;;;;;;;;;5.70;99.90;;;;;;5133521;27;19912;-79
2022/01/21 00:56:41;;;;;;;;;;;5.70;99.90;;;;;;5134377;27;19908;-79
2022/01/21 00:59:07;;;;;;;;;;;5.70;99.90;;;;;;5133533;27;19911;-79
2022/01/21 01:01:33;;;;;;;;;;;5.60;99.90;;;;;;5134068;27;19907;-79
2022/01/21 01:03:58;;;;;;;;;;;5.60;99.90;;;;;;5133130;27;19998;-78
2022/01/21 01:06:24;;;;;;;;;;;5.60;99.90;;;;;;5134113;27;19907;-79
2022/01/21 01:08:52;;;;;;;;;;;5.60;99.90;;;;;;5133690;27;19938;-79
2022/01/21 01:11:25;;;;;;;;;;;5.60;99.90;;;;;;5133569;27;19914;-79
2022/01/21 01:22:04;;;;;;;;;;;5.60;99.90;;;;;;5112023;28;19966;-79
2022/01/21 01:29:58;;;;;;;;;;;5.60;99.90;;;;;;5112168;28;19985;-77
2022/01/21 01:32:26;;;;;;;;;;;5.60;99.90;;;;;;5112910;28;19908;-79
2022/01/21 01:34:52;;;;;;;;;;;5.60;99.90;;;;;;5112956;28;19994;-79
2022/01/21 01:37:34;;;;;;;;;;;5.60;99.90;;;;;;5112112;28;20521;-79
2022/01/21 01:40:13;;;;;;;;;;;5.60;99.90;;;;;;5112382;28;19908;-79
2022/01/21 01:50:52;;;;;;;;;;;5.60;99.90;;;;;;5133484;28;19922;-78
2022/01/21 01:53:21;;;;;;;;;;;5.60;99.90;;;;;;5132915;28;19914;-78
2022/01/21 01:55:47;;;;;;;;;;;5.60;99.90;;;;;;5133097;28;20352;-78
2022/01/21 01:58:14;;;;;;;;;;;5.60;99.90;;;;;;5132067;28;19950;-78
2022/01/21 02:00:43;;;;;;;;;;;5.60;99.90;;;;;;5133477;28;19911;-78
2022/01/21 02:03:09;;;;;;;;;;;5.60;99.90;;;;;;5132652;28;19930;-79
2022/01/21 02:05:35;;;;;;;;;;;5.60;99.90;;;;;;5133446;28;19921;-80
2022/01/21 02:08:01;;;;;;;;;;;5.60;99.90;;;;;;5132280;28;19915;-77
2022/01/21 02:10:26;;;;;;;;;;;5.50;99.90;;;;;;5133111;28;19947;-80
2022/01/21 02:13:02;;;;;;;;;;;5.60;99.90;;;;;;5133280;28;19908;-79
2022/01/21 02:15:28;;;;;;;;;;;5.50;99.90;;;;;;5133408;28;20368;-80
2022/01/21 02:23:24;;;;;;;;;;;5.60;99.90;;;;;;5132279;28;19984;-78
2022/01/21 02:25:50;;;;;;;;;;;5.50;99.90;;;;;;5132926;28;19911;-80
2022/01/21 02:28:16;;;;;;;;;;;5.50;99.90;;;;;;5132643;28;19920;-79
2022/01/21 02:30:58;;;;;;;;;;;5.50;99.90;;;;;;5134525;27;20371;-80
2022/01/21 02:33:24;;;;;;;;;;;5.50;99.90;;;;;;5136449;27;19912;-80
2022/01/21 02:35:49;;;;;;;;;;;5.50;99.90;;;;;;5137217;27;20002;-79
2022/01/21 02:38:16;;;;;;;;;;;5.50;99.90;;;;;;5136124;27;20009;-78
2022/01/21 02:40:41;;;;;;;;;;;5.40;99.90;;;;;;5137164;27;20287;-79
2022/01/21 02:43:07;;;;;;;;;;;5.50;99.90;;;;;;5136197;27;19998;-79
2022/01/21 02:45:33;;;;;;;;;;;5.50;99.90;;;;;;5136809;27;19911;-79
2022/01/21 02:48:00;;;;;;;;;;;5.50;99.90;;;;;;5136388;27;19991;-79
2022/01/21 02:50:25;;;;;;;;;;;5.50;99.90;;;;;;5136180;27;20398;-79
2022/01/21 02:53:07;;;;;;;;;;;5.50;99.90;;;;;;5136415;27;19998;-79
2022/01/21 02:55:32;;;;;;;;;;;5.50;99.90;;;;;;5136871;27;19907;-80
2022/01/21 02:57:58;;;;;;;;;;;5.50;99.90;;;;;;5136531;27;19960;-78
2022/01/21 03:00:23;;;;;;;;;;;5.40;99.90;;;;;;5135272;27;19911;-79
2022/01/21 03:02:49;;;;;;;;;;;5.40;99.90;;;;;;5136486;27;20322;-78
2022/01/21 03:05:16;;;;;;;;;;;5.40;99.90;;;;;;5135645;27;20010;-78
2022/01/21 03:07:42;;;;;;;;;;;5.40;99.90;;;;;;5136382;27;19907;-78
2022/01/21 03:10:09;;;;;;;;;;;5.40;99.90;;;;;;5135663;27;19922;-79
2022/01/21 03:12:35;;;;;;;;;;;5.40;99.90;;;;;;5136403;27;20004;-78
2022/01/21 03:15:00;;;;;;;;;;;5.40;99.90;;;;;;5136342;27;19912;-80
2022/01/21 03:17:26;;;;;;;;;;;5.40;99.90;;;;;;5146296;27;19911;-79
2022/01/21 03:19:51;;;;;;;;;;;5.50;99.90;;;;;;5153769;27;19960;-80
2022/01/21 03:22:17;;;;;;;;;;;5.50;99.90;;;;;;5138634;27;19914;-78
2022/01/21 03:24:43;;;;;;;;;;;5.40;99.90;;;;;;5136191;27;19911;-80
2022/01/21 03:27:08;;;;;;;;;;;5.50;99.90;;;;;;5135341;27;19908;-80
2022/01/21 03:29:34;;;;;;;;;;;5.40;99.90;;;;;;5136105;27;20271;-80
2022/01/21 03:31:59;;;;;;;;;;;5.50;99.90;;;;;;5136029;27;19915;-79
2022/01/21 03:34:25;;;;;;;;;;;5.50;99.90;;;;;;5134830;27;19911;-79
2022/01/21 03:36:53;;;;;;;;;;;5.50;99.90;;;;;;5135678;27;20383;-79
2022/01/21 03:39:18;;;;;;;;;;;5.40;99.90;;;;;;5134520;27;19911;-79
2022/01/21 03:41:44;;;;;;;;;;;5.40;99.90;;;;;;5135177;27;19918;-80
2022/01/21 03:44:09;;;;;;;;;;;5.50;99.90;;;;;;5134909;27;19915;-78
2022/01/21 03:46:35;;;;;;;;;;;5.40;99.90;;;;;;5135488;27;19912;-78
2022/01/21 03:49:03;;;;;;;;;;;5.40;99.90;;;;;;5135782;27;20401;-80
2022/01/21 03:51:29;;;;;;;;;;;5.40;99.90;;;;;;5134820;27;19915;-79
2022/01/21 03:53:54;;;;;;;;;;;5.40;99.90;;;;;;5135450;27;19915;-79
2022/01/21 03:56:20;;;;;;;;;;;5.40;99.90;;;;;;5116415;27;20325;-80
2022/01/21 03:58:46;;;;;;;;;;;5.40;99.90;;;;;;5135406;27;19951;-80
2022/01/21 04:01:11;;;;;;;;;;;5.40;99.90;;;;;;5134707;27;19922;-78
2022/01/21 04:03:37;;;;;;;;;;;5.40;99.90;;;;;;5135407;27;19908;-80
2022/01/21 04:06:03;;;;;;;;;;;5.40;99.90;;;;;;5135142;27;19955;-80
2022/01/21 04:08:28;;;;;;;;;;;5.40;99.90;;;;;;5134365;27;19911;-78
2022/01/21 04:10:54;;;;;;;;;;;5.40;99.90;;;;;;5135215;27;19931;-79
2022/01/21 04:13:22;;;;;;;;;;;5.40;99.90;;;;;;5133937;27;19955;-78
2022/01/21 04:15:49;;;;;;;;;;;5.40;99.90;;;;;;5135113;27;19943;-79
2022/01/21 04:18:15;;;;;;;;;;;5.40;99.90;;;;;;5134286;27;19908;-78
2022/01/21 04:20:41;;;;;;;;;;;5.40;99.90;;;;;;5135158;27;20465;-79
2022/01/21 04:23:07;;;;;;;;;;;5.40;99.90;;;;;;5134366;27;20291;-76
2022/01/21 04:25:32;;;;;;;;;;;5.40;99.90;;;;;;5134528;27;19907;-79
2022/01/21 04:27:58;;;;;;;;;;;5.40;99.90;;;;;;5134588;27;19923;-79
2022/01/21 04:30:24;;;;;;;;;;;5.40;99.90;;;;;;5134142;27;20337;-80
2022/01/21 04:32:49;;;;;;;;;;;5.40;99.90;;;;;;5134606;27;20414;-81
2022/01/21 04:35:15;;;;;;;;;;;5.40;99.90;;;;;;5133870;27;20379;-79
2022/01/21 04:37:48;;;;;;;;;;;5.40;99.90;;;;;;5135002;27;19907;-80
2022/01/21 04:40:17;;;;;;;;;;;5.40;99.90;;;;;;5133861;27;19908;-79
2022/01/21 04:48:11;;;;;;;;;;;5.40;99.90;;;;;;5133235;27;19943;-77
2022/01/21 04:50:54;;;;;;;;;;;5.40;99.90;;;;;;5134132;27;20352;-79
2022/01/21 04:53:20;;;;;;;;;;;5.40;99.90;;;;;;5132677;27;19908;-80
2022/01/21 04:55:46;;;;;;;;;;;5.40;99.90;;;;;;5134003;27;20401;-79
2022/01/21 04:58:12;;;;;;;;;;;5.40;99.90;;;;;;5133844;27;19950;-76
2022/01/21 05:00:37;;;;;;;;;;;5.50;99.90;;;;;;5134044;27;19958;-80
2022/01/21 05:03:03;;;;;;;;;;;5.40;99.90;;;;;;5134316;27;20337;-79
2022/01/21 05:05:29;;;;;;;;;;;5.40;99.90;;;;;;5133483;27;19907;-79
2022/01/21 05:07:55;;;;;;;;;;;5.50;99.90;;;;;;5134163;27;19907;-79
2022/01/21 05:10:24;;;;;;;;;;;5.50;99.90;;;;;;5133300;27;19908;-79
2022/01/21 05:12:49;;;;;;;;;;;5.50;99.90;;;;;;5133900;27;19914;-80
2022/01/21 05:15:26;;;;;;;;;;;5.40;99.90;;;;;;5133697;27;19987;-78
2022/01/21 05:17:51;;;;;;;;;;;5.50;99.90;;;;;;5134091;27;20310;-79
2022/01/21 05:20:17;;;;;;;;;;;5.50;99.90;;;;;;5132962;27;19907;-79
2022/01/21 05:22:43;;;;;;;;;;;5.50;99.90;;;;;;5133869;27;20052;-79
2022/01/21 05:25:16;;;;;;;;;;;5.50;99.90;;;;;;5133456;27;19915;-80
2022/01/21 05:27:43;;;;;;;;;;;5.50;99.90;;;;;;5133837;27;19911;-79
2022/01/21 05:30:09;;;;;;;;;;;5.50;99.90;;;;;;5133559;27;19908;-79
2022/01/21 05:32:35;;;;;;;;;;;5.40;99.90;;;;;;5132959;27;19911;-79
2022/01/21 05:35:00;;;;;;;;;;;5.40;99.90;;;;;;5133691;27;19908;-80
2022/01/21 05:37:26;;;;;;;;;;;5.50;99.90;;;;;;5132872;27;20403;-80
2022/01/21 05:39:52;;;;;;;;;;;5.50;99.90;;;;;;5115275;27;19954;-79
2022/01/21 05:42:20;;;;;;;;;;;5.50;99.90;;;;;;5132751;27;20360;-79
2022/01/21 05:47:11;;;;;;;;;;;5.50;99.90;;;;;;5133772;27;19954;-79
2022/01/21 05:49:37;;;;;;;;;;;5.50;99.90;;;;;;5132842;27;19920;-79
2022/01/21 05:52:07;;;;;;;;;;;5.50;99.90;;;;;;5133591;27;20348;-80
2022/01/21 05:54:32;;;;;;;;;;;5.50;99.90;;;;;;5132666;28;19911;-79
2022/01/21 05:57:00;;;;;;;;;;;5.50;99.90;;;;;;5133332;28;20233;-80
2022/01/21 05:59:26;;;;;;;;;;;5.50;99.90;;;;;;5132050;28;19934;-79
2022/01/21 06:01:51;;;;;;;;;;;5.50;99.90;;;;;;5133340;28;20348;-80
2022/01/21 06:04:17;;;;;;;;;;;5.50;99.90;;;;;;5133393;27;19907;-77
2022/01/21 06:06:43;;;;;;;;;;;5.50;99.90;;;;;;5137652;27;19922;-80
2022/01/21 06:09:09;;;;;;;;;;;5.50;99.90;;;;;;5137568;27;19915;-80
2022/01/21 06:11:35;;;;;;;;;;;5.50;99.90;;;;;;5136740;27;19908;-80
2022/01/21 06:14:02;;;;;;;;;;;5.50;99.90;;;;;;5137380;27;19908;-80
2022/01/21 06:16:28;;;;;;;;;;;5.50;99.90;;;;;;5136615;27;19973;-80
2022/01/21 06:18:54;;;;;;;;;;;5.50;99.90;;;;;;5137498;27;19915;-80
2022/01/21 06:21:19;;;;;;;;;;;5.50;99.90;;;;;;5136410;27;20280;-79
2022/01/21 06:23:45;;;;;;;;;;;5.50;99.90;;;;;;5137584;27;19913;-79
2022/01/21 06:26:10;;;;;;;;;;;5.60;99.90;;;;;;5137211;27;20388;-80
2022/01/21 06:28:36;;;;;;;;;;;5.60;99.90;;;;;;5136133;27;20505;-79
2022/01/21 06:31:02;;;;;;;;;;;5.70;99.90;;;;;;5137216;27;19908;-80
2022/01/21 06:33:27;;;;;;;;;;;5.60;99.90;;;;;;5118046;27;20253;-79
2022/01/21 06:35:53;;;;;;;;;;;5.60;99.90;;;;;;5141316;27;19907;-80
2022/01/21 06:38:19;;;;;;;;;;;5.70;99.90;;;;;;5158045;27;20271;-77
2022/01/21 06:40:46;;;;;;;;;;;5.70;99.90;;;;;;5148262;27;19961;-80
2022/01/21 06:43:12;;;;;;;;;;;5.70;99.90;;;;;;5136952;27;19994;-79
2022/01/21 06:45:38;;;;;;;;;;;5.70;99.90;;;;;;5136129;27;20505;-79
2022/01/21 06:48:04;;;;;;;;;;;5.70;99.90;;;;;;5136477;27;19925;-79
2022/01/21 06:50:30;;;;;;;;;;;5.70;99.90;;;;;;5136159;27;19908;-80
2022/01/21 06:52:56;;;;;;;;;;;5.70;99.90;;;;;;5136700;27;19911;-80
2022/01/21 06:55:22;;;;;;;;;;;5.70;99.90;;;;;;5135908;27;19914;-80
2022/01/21 06:57:48;;;;;;;;;;;5.70;99.90;;;;;;5136417;27;20360;-80
2022/01/21 07:00:18;;;;;;;;;;;5.70;99.90;;;;;;5136683;27;19998;-80
2022/01/21 07:02:48;;;;;;;;;;;5.70;99.90;;;;;;5117911;27;19998;-79
2022/01/21 07:05:14;;;;;;;;;;;5.80;99.90;;;;;;5136874;27;19908;-81
2022/01/21 07:07:40;;;;;;;;;;;5.70;99.90;;;;;;5135403;27;19956;-79
2022/01/21 07:10:06;;;;;;;;;;;5.70;99.90;;;;;;5136150;27;20010;-79
2022/01/21 07:12:35;;;;;;;;;;;5.80;99.90;;;;;;5134610;27;20242;-79
2022/01/21 07:15:00;;;;;;;;;;;5.80;99.90;;;;;;5136023;27;19911;-79
2022/01/21 07:17:26;;;;;;;;;;;5.80;99.90;;;;;;5134564;27;19919;-79
2022/01/21 07:19:52;;;;;;;;;;;5.70;99.90;;;;;;5135817;27;20301;-78
2022/01/21 07:22:17;;;;;;;;;;;5.70;99.90;;;;;;5136037;27;19907;-78
2022/01/21 07:24:43;;;;;;;;;;;5.70;99.90;;;;;;5116723;27;19950;-78
2022/01/21 07:27:09;;;;;;;;;;;5.70;99.90;;;;;;5136008;27;20008;-79
2022/01/21 07:29:34;;;;;;;;;;;5.70;99.90;;;;;;5116526;27;19960;-79
2022/01/21 07:32:00;;;;;;;;;;;5.80;99.90;;;;;;5117304;27;20272;-78
2022/01/21 07:34:26;;;;;;;;;;;5.80;99.90;;;;;;5134831;27;19942;-78
2022/01/21 07:36:52;;;;;;;;;;;5.70;99.90;;;;;;5117328;27;20002;-81
2022/01/21 07:39:18;;;;;;;;;;;5.70;99.90;;;;;;5136370;27;19961;-81
2022/01/21 07:41:44;;;;;;;;;;;5.70;99.90;;;;;;5135023;27;19965;-79
2022/01/21 07:44:09;;;;;;;;;;;5.70;99.90;;;;;;5135742;27;19937;-80
2022/01/21 07:46:35;;;;;;;;;;;5.80;99.90;;;;;;5134374;27;19915;-79
2022/01/21 07:49:01;;;;;;;;;;;5.70;99.90;;;;;;5134685;27;19927;-78
2022/01/21 07:51:26;;;;;;;;;;;5.70;99.90;;;;;;5134714;27;19911;-77
2022/01/21 07:53:52;;;;;;;;;;;5.70;99.90;;;;;;5135606;27;19907;-78
2022/01/21 07:56:18;;;;;;;;;;;5.80;99.90;;;;;;5138534;27;19990;-76
2022/01/21 07:58:44;;;;;;;;;;;5.80;99.90;;;;;;5135348;27;20498;-79
2022/01/21 08:01:09;;;;;;;;;;;5.70;99.90;;;;;;5135144;27;19914;-79
2022/01/21 08:03:35;;;;;;;;;;;5.80;99.90;;;;;;5134645;27;19990;-76
2022/01/21 08:06:01;;;;;;;;;;;5.70;99.90;;;;;;5135296;27;20336;-77
2022/01/21 08:08:26;;;;;;;;;;;5.70;99.90;;;;;;5134618;27;19919;-75
2022/01/21 08:10:53;;;;;;;;;;;5.80;99.90;;;;;;5135133;27;19914;-78
2022/01/21 08:13:18;;;;;;;;;;;5.80;99.90;;;;;;5135550;27;19915;-79
2022/01/21 08:15:44;;;;;;;;;;;5.80;99.90;;;;;;5153363;27;20079;-78
2022/01/21 08:18:09;;;;;;;;;;;5.80;99.90;;;;;;5155450;27;19918;-77
2022/01/21 08:20:35;;;;;;;;;;;5.80;99.90;;;;;;5150356;27;19915;-78
2022/01/21 08:23:01;;;;;;;;;;;5.80;99.90;;;;;;5136008;27;19908;-79
2022/01/21 08:25:26;;;;;;;;;;;5.80;99.90;;;;;;5134775;27;19914;-77
2022/01/21 08:27:52;;;;;;;;;;;5.80;99.90;;;;;;5133423;27;19911;-79
2022/01/21 08:30:17;;;;;;;;;;;5.70;99.90;;;;;;5134350;27;20268;-78
2022/01/21 08:32:43;;;;;;;;;;;5.70;99.90;;;;;;5133892;27;19922;-78
2022/01/21 08:35:09;;;;;;;;;;;5.80;99.90;;;;;;5116304;27;19908;-80
2022/01/21 08:37:35;;;;;;;;;;;5.80;99.90;;;;;;5133832;27;20375;-78
2022/01/21 08:40:00;;;;;;;;;;;5.80;99.90;;;;;;5134915;27;19907;-80
2022/01/21 08:42:26;;;;;;;;;;;5.80;99.90;;;;;;5134156;27;20348;-76
2022/01/21 08:44:52;;;;;;;;;;;5.80;99.90;;;;;;5134192;27;19907;-79
2022/01/21 08:47:20;;;;;;;;;;;5.80;99.90;;;;;;5134524;27;19914;-79
2022/01/21 08:49:48;;;;;;;;;;;5.80;99.90;;;;;;5133180;27;19919;-78
2022/01/21 08:52:19;;;;;;;;;;;5.80;99.90;;;;;;5134339;27;19922;-79
2022/01/21 08:54:46;;;;;;;;;;;5.80;99.90;;;;;;5133462;27;19937;-79
2022/01/21 08:57:11;;;;;;;;;;;5.80;99.90;;;;;;5134255;27;19907;-78
2022/01/21 08:59:37;;;;;;;;;;;5.80;99.90;;;;;;5133168;27;20262;-78
2022/01/21 09:02:02;;;;;;;;;;;5.80;99.90;;;;;;5133895;27;19908;-79
2022/01/21 09:04:28;;;;;;;;;;;5.80;99.90;;;;;;5133262;27;19947;-75
2022/01/21 09:06:54;;;;;;;;;;;5.80;99.90;;;;;;5133617;27;19907;-80
2022/01/21 09:09:19;;;;;;;;;;;5.90;99.90;;;;;;5133601;27;19919;-78
2022/01/21 09:11:45;;;;;;;;;;;5.90;99.90;;;;;;5132859;27;19914;-79
2022/01/21 09:14:11;;;;;;;;;;;5.90;99.90;;;;;;5133979;27;19915;-78
2022/01/21 09:16:37;;;;;;;;;;;5.90;99.90;;;;;;5133030;27;20419;-79
2022/01/21 09:19:04;;;;;;;;;;;5.90;99.90;;;;;;5133690;27;20045;-79
2022/01/21 09:21:32;;;;;;;;;;;5.90;99.90;;;;;;5133215;27;19908;-76
2022/01/21 09:23:58;;;;;;;;;;;5.90;99.90;;;;;;5133743;27;19908;-78
2022/01/21 09:26:25;;;;;;;;;;;5.90;99.90;;;;;;5133864;27;19907;-79
2022/01/21 09:28:51;;;;;;;;;;;5.90;99.90;;;;;;5132934;27;19919;-79
2022/01/21 09:31:17;;;;;;;;;;;5.90;99.90;;;;;;5133680;27;19957;-79
2022/01/21 09:33:43;;;;;;;;;;;6.00;99.90;;;;;;5132753;27;19946;-79
2022/01/21 09:36:09;;;;;;;;;;;6.00;99.90;;;;;;5133574;27;19915;-78
2022/01/21 09:38:35;;;;;;;;;;;6.00;99.90;;;;;;5132561;27;19908;-78
2022/01/21 09:41:01;;;;;;;;;;;6.00;99.90;;;;;;5133037;27;19998;-79
2022/01/21 09:43:27;;;;;;;;;;;6.00;99.90;;;;;;5133329;27;20365;-79
2022/01/21 09:45:54;;;;;;;;;;;6.10;99.90;;;;;;5132688;27;20022;-79
2022/01/21 09:48:23;;;;;;;;;;;6.10;99.90;;;;;;5133301;27;20356;-79
2022/01/21 09:50:52;;;;;;;;;;;6.10;99.90;;;;;;5131949;27;20259;-79
2022/01/21 09:53:44;;;;;;;;;;;6.10;99.90;;;;;;5133152;27;19916;-80
2022/01/21 09:56:10;;;;;;;;;;;6.20;99.90;;;;;;5128481;28;19911;-79
2022/01/21 09:58:35;;;;;;;;;;;6.20;99.90;;;;;;5132561;28;19907;-79
2022/01/21 10:01:05;;;;;;;;;;;6.20;99.90;;;;;;5133433;28;20367;-79
2022/01/21 10:03:31;;;;;;;;;;;6.20;99.90;;;;;;5132886;28;19911;-76
2022/01/21 10:05:57;;;;;;;;;;;6.30;99.90;;;;;;5132704;28;20268;-79
2022/01/21 10:08:23;;;;;;;;;;;6.30;99.90;;;;;;5133601;28;19911;-78
2022/01/21 10:10:49;;;;;;;;;;;6.30;99.90;;;;;;5134774;28;19911;-80
2022/01/21 10:13:15;;;;;;;;;;;6.30;99.90;;;;;;5154776;28;19905;-79
2022/01/21 10:15:41;;;;;;;;;;;6.30;99.90;;;;;;5132427;28;19911;-80
2022/01/21 10:18:14;;;;;;;;;;;6.30;99.90;;;;;;5133162;28;19915;-79
2022/01/21 10:20:55;;;;;;;;;;;6.40;99.90;;;;;;5132045;28;20006;-78
2022/01/21 10:23:21;;;;;;;;;;;6.40;99.90;;;;;;5130759;28;19951;-78
2022/01/21 10:25:54;;;;;;;;;;;6.40;99.90;;;;;;5131193;28;20003;-78
2022/01/21 10:28:20;;;;;;;;;;;6.50;99.90;;;;;;5131785;28;19957;-77
2022/01/21 10:30:46;;;;;;;;;;;6.40;99.90;;;;;;5131515;28;19924;-78
2022/01/21 10:33:19;;;;;;;;;;;6.50;99.90;;;;;;5132355;28;19946;-79
2022/01/21 10:35:48;;;;;;;;;;;6.50;99.90;;;;;;5125140;28;19972;-78
2022/01/21 10:38:15;;;;;;;;;;;6.50;99.90;;;;;;5131879;28;19908;-79
2022/01/21 10:40:41;;;;;;;;;;;6.50;99.90;;;;;;5130611;28;19994;-78
2022/01/21 10:43:13;;;;;;;;;;;6.60;99.90;;;;;;5132126;28;19959;-79
2022/01/21 10:45:47;;;;;;;;;;;6.60;99.90;;;;;;5128249;28;19908;-78
2022/01/21 10:48:13;;;;;;;;;;;6.60;99.90;;;;;;5111606;28;19920;-78
2022/01/21 10:50:39;;;;;;;;;;;6.60;99.90;;;;;;5129868;27;19912;-78
2022/01/21 10:53:04;;;;;;;;;;;6.70;99.90;;;;;;5132418;27;19960;-78
2022/01/21 10:55:30;;;;;;;;;;;6.60;99.90;;;;;;5135135;27;20296;-77
2022/01/21 10:58:12;;;;;;;;;;;6.60;99.90;;;;;;5134650;27;19907;-79
2022/01/21 11:00:56;;;;;;;;;;;6.60;99.90;;;;;;5114358;27;20368;-77
2022/01/21 11:03:21;;;;;;;;;;;6.70;99.90;;;;;;5136035;27;19957;-78
2022/01/21 11:05:48;;;;;;;;;;;6.70;99.90;;;;;;5116574;27;19912;-78
2022/01/21 11:08:15;;;;;;;;;;;6.70;99.90;;;;;;5136166;27;19915;-78
2022/01/21 11:10:50;;;;;;;;;;;6.70;99.90;;;;;;5135313;27;19908;-77
2022/01/21 11:13:18;;;;;;;;;;;6.70;99.90;;;;;;5117694;27;20157;-77
2022/01/21 11:15:57;;;;;;;;;;;6.70;99.90;;;;;;5135210;27;19960;-77
2022/01/21 11:18:23;;;;;;;;;;;6.70;99.90;;;;;;5135454;27;20379;-79
2022/01/21 11:21:07;;;;;;;;;;;6.80;99.90;;;;;;5134883;27;19907;-79
2022/01/21 11:23:34;;;;;;;;;;;6.80;99.90;;;;;;5135714;27;19908;-78
2022/01/21 11:26:01;;;;;;;;;;;6.80;99.90;;;;;;5135168;27;19965;-77
2022/01/21 11:28:36;;;;;;;;;;;6.80;99.90;;;;;;5135574;27;19916;-77
2022/01/21 11:31:02;;;;;;;;;;;6.80;99.90;;;;;;5135591;27;19952;-77
2022/01/21 11:33:28;;;;;;;;;;;6.90;99.90;;;;;;5135465;27;19908;-77
2022/01/21 11:35:53;;;;;;;;;;;6.90;99.90;;;;;;5134721;27;19914;-78
2022/01/21 11:38:20;;;;;;;;;;;7.00;99.90;;;;;;5135657;27;20006;-77
2022/01/21 11:40:47;;;;;;;;;;;7.00;99.90;;;;;;5133457;27;19957;-77
2022/01/21 11:43:13;;;;;;;;;;;7.00;99.90;;;;;;5113445;27;19934;-78
2022/01/21 11:50:33;;;;;;;;;;;7.10;99.90;;;;;;5131541;27;19915;-79
2022/01/21 11:52:59;;;;;;;;;;;7.10;99.90;;;;;;5098022;27;19990;-79
2022/01/21 11:55:45;;;;;;;;;;;7.20;99.90;;;;;;5135154;27;19998;-78
2022/01/21 11:58:18;;;;;;;;;;;7.20;99.90;;;;;;5133775;27;19978;-78
2022/01/21 12:00:44;;;;;;;;;;;7.10;99.90;;;;;;5131737;27;20473;-78
2022/01/21 12:03:10;;;;;;;;;;;7.10;99.90;;;;;;5134650;27;19907;-78
2022/01/21 12:05:36;;;;;;;;;;;7.20;99.90;;;;;;5134564;27;19942;-77
2022/01/21 12:08:05;;;;;;;;;;;7.20;99.90;;;;;;5115716;27;19954;-79
2022/01/21 12:10:33;;;;;;;;;;;7.20;99.90;;;;;;5116102;27;19968;-79
2022/01/21 12:13:05;;;;;;;;;;;7.20;99.90;;;;;;5133293;27;20151;-79
2022/01/21 12:15:42;;;;;;;;;;;7.30;99.90;;;;;;5115914;27;19907;-80
2022/01/21 12:18:21;;;;;;;;;;;7.30;99.90;;;;;;5132773;27;20002;-79
2022/01/21 12:20:48;;;;;;;;;;;7.30;99.90;;;;;;5131860;27;19907;-79
2022/01/21 12:23:14;;;;;;;;;;;7.40;99.90;;;;;;5134303;27;19908;-79
2022/01/21 12:25:59;;;;;;;;;;;7.40;99.90;;;;;;5132637;27;19911;-77
2022/01/21 12:28:24;;;;;;;;;;;7.40;99.90;;;;;;5113641;27;19922;-79
2022/01/21 12:30:53;;;;;;;;;;;7.40;99.90;;;;;;5132769;27;19911;-79
2022/01/21 12:33:19;;;;;;;;;;;7.40;99.90;;;;;;5131037;27;19911;-79
2022/01/21 12:35:46;;;;;;;;;;;7.50;99.90;;;;;;5132979;27;19971;-79
2022/01/21 12:40:50;;;;;;;;;;;7.50;99.90;;;;;;5131934;27;20009;-79
2022/01/21 12:43:34;;;;;;;;;;;7.40;99.90;;;;;;5133427;27;19916;-80
2022/01/21 12:46:00;;;;;;;;;;;7.40;99.90;;;;;;5130972;27;19939;-79
2022/01/21 12:48:29;;;;;;;;;;;7.40;99.90;;;;;;5133117;27;19980;-79
2022/01/21 12:50:59;;;;;;;;;;;7.40;99.90;;;;;;5129745;27;20427;-77
2022/01/21 12:53:33;;;;;;;;;;;7.40;99.90;;;;;;5115727;27;19918;-77
2022/01/21 12:56:05;;;;;;;;;;;7.50;99.90;;;;;;5133526;27;19946;-77
2022/01/21 12:58:30;;;;;;;;;;;7.50;99.90;;;;;;5133863;27;19915;-78
2022/01/21 13:00:57;;;;;;;;;;;7.50;99.90;;;;;;5133777;27;20099;-77
2022/01/21 13:03:34;;;;;;;;;;;7.50;99.90;;;;;;5133314;27;20006;-77
2022/01/21 13:06:06;;;;;;;;;;;7.50;99.90;;;;;;5133164;27;20493;-77
2022/01/21 13:08:47;;;;;;;;;;;7.50;99.90;;;;;;5113229;27;19946;-77
2022/01/21 13:11:19;;;;;;;;;;;7.50;99.90;;;;;;5114897;27;20288;-76
2022/01/21 13:13:57;;;;;;;;;;;7.60;99.90;;;;;;5131558;27;20006;-78
2022/01/21 13:16:30;;;;;;;;;;;7.60;99.90;;;;;;5133473;27;20280;-77
2022/01/21 13:19:00;;;;;;;;;;;7.60;99.90;;;;;;5133077;27;19914;-78
2022/01/21 13:21:25;;;;;;;;;;;7.70;99.90;;;;;;5132999;27;20009;-77
2022/01/21 13:23:56;;;;;;;;;;;7.70;99.90;;;;;;5113732;27;20007;-77
2022/01/21 13:26:23;;;;;;;;;;;7.70;99.90;;;;;;5114733;27;20006;-77
2022/01/21 13:28:52;;;;;;;;;;;7.70;99.90;;;;;;5131852;27;19950;-77
2022/01/21 13:31:18;;;;;;;;;;;7.80;99.90;;;;;;5133156;27;19908;-77
2022/01/21 13:33:43;;;;;;;;;;;7.70;99.90;;;;;;5132051;27;20395;-77
2022/01/21 13:36:10;;;;;;;;;;;7.70;99.90;;;;;;5133067;27;19907;-78
2022/01/21 13:38:37;;;;;;;;;;;7.70;99.90;;;;;;5133162;27;19956;-78
2022/01/21 13:41:07;;;;;;;;;;;7.70;99.90;;;;;;5132423;27;19911;-78
2022/01/21 13:43:33;;;;;;;;;;;7.70;99.90;;;;;;5133003;27;19907;-77
2022/01/21 13:46:00;;;;;;;;;;;7.70;99.90;;;;;;5132700;27;20458;-78
2022/01/21 13:48:26;;;;;;;;;;;7.60;99.90;;;;;;5132579;27;19927;-77
2022/01/21 13:50:52;;;;;;;;;;;7.60;99.90;;;;;;5132551;27;19915;-77
2022/01/21 13:53:18;;;;;;;;;;;7.70;99.90;;;;;;5132801;27;19934;-77
2022/01/21 13:55:49;;;;;;;;;;;7.60;99.90;;;;;;5132204;28;19930;-76
2022/01/21 13:58:14;;;;;;;;;;;7.70;99.90;;;;;;5133052;28;19908;-78
2022/01/21 14:00:49;;;;;;;;;;;7.60;99.90;;;;;;5133551;28;19908;-79
2022/01/21 14:03:15;;;;;;;;;;;7.60;99.90;;;;;;5133240;28;19907;-78
2022/01/21 14:05:45;;;;;;;;;;;7.60;99.90;;;;;;5114897;28;19915;-79
2022/01/21 14:08:15;;;;;;;;;;;7.60;99.90;;;;;;5132708;28;19952;-77
2022/01/21 14:10:41;;;;;;;;;;;7.60;99.90;;;;;;5133001;28;20002;-77
2022/01/21 14:13:06;;;;;;;;;;;7.60;99.90;;;;;;5132288;28;19958;-79
2022/01/21 14:15:32;;;;;;;;;;;7.60;99.90;;;;;;5133078;28;19907;-79
2022/01/21 14:17:58;;;;;;;;;;;7.70;99.90;;;;;;5131426;28;19958;-78
2022/01/21 14:20:24;;;;;;;;;;;7.70;99.90;;;;;;5131991;28;19932;-80
2022/01/21 14:22:50;;;;;;;;;;;7.70;99.90;;;;;;5132128;28;19908;-79
2022/01/21 14:25:16;;;;;;;;;;;7.70;99.90;;;;;;5133078;27;20061;-79
2022/01/21 14:27:49;;;;;;;;;;;7.60;99.90;;;;;;5137664;27;19973;-79
2022/01/21 14:30:15;;;;;;;;;;;7.70;99.90;;;;;;5135929;27;19923;-78
2022/01/21 14:32:42;;;;;;;;;;;7.70;99.90;;;;;;5136267;27;20442;-79
2022/01/21 14:35:09;;;;;;;;;;;7.70;99.90;;;;;;5135911;27;19951;-79
2022/01/21 14:37:35;;;;;;;;;;;7.60;99.90;;;;;;5117953;27;20327;-78
2022/01/21 14:40:03;;;;;;;;;;;7.70;99.90;;;;;;5117327;27;20006;-78
2022/01/21 14:42:29;;;;;;;;;;;7.60;99.90;;;;;;5136804;27;19907;-77
2022/01/21 14:45:00;;;;;;;;;;;7.60;99.90;;;;;;5135902;27;19942;-77
2022/01/21 14:47:28;;;;;;;;;;;7.60;99.90;;;;;;5136641;27;19907;-78
2022/01/21 14:50:05;;;;;;;;;;;7.60;99.90;;;;;;5132556;27;20299;-78
2022/01/21 14:52:40;;;;;;;;;;;7.60;99.90;;;;;;5136087;27;19907;-78
2022/01/21 14:55:05;;;;;;;;;;;7.60;99.90;;;;;;5134800;27;20602;-78
2022/01/21 14:57:34;;;;;;;;;;;7.60;99.90;;;;;;5135290;27;19911;-78
2022/01/21 15:00:02;;;;;;;;;;;7.60;99.90;;;;;;5135028;27;19907;-79
2022/01/21 15:02:35;;;;;;;;;;;7.50;99.90;;;;;;5135869;27;19916;-79
2022/01/21 15:05:04;;;;;;;;;;;7.60;99.90;;;;;;5134992;27;20010;-79
2022/01/21 15:07:31;;;;;;;;;;;7.60;99.90;;;;;;5135705;27;19958;-79
2022/01/21 15:10:00;;;;;;;;;;;7.50;99.90;;;;;;5134589;27;19926;-78
2022/01/21 15:15:32;;;;;;;;;;;7.60;99.90;;;;;;5133979;27;19957;-78
2022/01/21 15:17:58;;;;;;;;;;;7.50;99.90;;;;;;5134436;27;19907;-77
2022/01/21 15:20:29;;;;;;;;;;;7.50;99.90;;;;;;5116949;27;19943;-78
2022/01/21 15:22:54;;;;;;;;;;;7.50;99.90;;;;;;5145032;27;19930;-79
2022/01/21 15:25:20;;;;;;;;;;;7.40;99.90;;;;;;5154197;27;19891;-80
2022/01/21 15:27:46;;;;;;;;;;;7.50;99.90;;;;;;5146226;27;19911;-76
2022/01/21 15:30:11;;;;;;;;;;;7.40;99.90;;;;;;5135093;27;19968;-78
2022/01/21 15:32:37;;;;;;;;;;;7.40;99.90;;;;;;5135652;27;19922;-77